sensor_id;sensor_type;location;lat;lon;timestamp;temperature;humidity
59162;DHT22;44942;48.936;8.260;2023-12-20T00:04:01;21.40;49.30
59162;DHT22;44942;48.936;8.260;2023-12-20T00:09:02;21.40;49.40
59162;DHT22;44942;48.936;8.260;2023-12-20T00:14:02;21.40;49.30
59162;DHT22;44942;48.936;8.260;2023-12-20T00:19:03;21.40;49.40
59162;DHT22;44942;48.936;8.260;2023-12-20T00:24:04;21.10;49.30
59162;DHT22;44942;48.936;8.260;2023-12-20T00:29:05;21.10;49.30
59162;DHT22;44942;48.936;8.260;2023-12-20T00:34:05;21.10;49.20
59162;DHT22;44942;48.936;8.260;2023-12-20T00:39:06;21.20;49.10
59162;DHT22;44942;48.936;8.260;2023-12-20T00:44:07;21.20;49.10
59162;DHT22;44942;48.936;8.260;2023-12-20T00:49:07;21.30;49.10
59162;DHT22;44942;48.936;8.260;2023-12-20T00:54:08;21.30;49.20
59162;DHT22;44942;48.936;8.260;2023-12-20T00:59:09;21.20;49.20
59162;DHT22;44942;48.936;8.260;2023-12-20T01:04:10;21.30;49.20
59162;DHT22;44942;48.936;8.260;2023-12-20T01:09:11;21.30;49.20
59162;DHT22;44942;48.936;8.260;2023-12-20T01:14:11;21.30;49.30
59162;DHT22;44942;48.936;8.260;2023-12-20T01:19:13;21.30;49.40
59162;DHT22;44942;48.936;8.260;2023-12-20T01:24:14;21.30;49.30
59162;DHT22;44942;48.936;8.260;2023-12-20T01:29:14;21.30;49.40
59162;DHT22;44942;48.936;8.260;2023-12-20T01:34:18;21.20;49.40
59162;DHT22;44942;48.936;8.260;2023-12-20T01:39:18;21.20;49.40
59162;DHT22;44942;48.936;8.260;2023-12-20T01:44:19;21.20;50.20
59162;DHT22;44942;48.936;8.260;2023-12-20T01:49:19;21.20;49.50
59162;DHT22;44942;48.936;8.260;2023-12-20T01:54:20;21.20;49.50
59162;DHT22;44942;48.936;8.260;2023-12-20T01:59:21;21.20;49.50
59162;DHT22;44942;48.936;8.260;2023-12-20T02:04:22;21.20;49.50
59162;DHT22;44942;48.936;8.260;2023-12-20T02:09:23;21.20;49.40
59162;DHT22;44942;48.936;8.260;2023-12-20T02:14:23;21.20;49.40
59162;DHT22;44942;48.936;8.260;2023-12-20T02:19:24;21.10;49.50
59162;DHT22;44942;48.936;8.260;2023-12-20T02:24:25;21.10;49.40
59162;DHT22;44942;48.936;8.260;2023-12-20T02:29:26;21.10;49.40
59162;DHT22;44942;48.936;8.260;2023-12-20T02:34:26;21.10;49.40
59162;DHT22;44942;48.936;8.260;2023-12-20T02:39:27;21.10;49.40
59162;DHT22;44942;48.936;8.260;2023-12-20T02:44:27;21.10;49.30
59162;DHT22;44942;48.936;8.260;2023-12-20T02:49:28;21.10;49.50
59162;DHT22;44942;48.936;8.260;2023-12-20T02:54:29;21.10;49.40
59162;DHT22;44942;48.936;8.260;2023-12-20T02:59:29;21.10;49.50
59162;DHT22;44942;48.936;8.260;2023-12-20T03:04:30;21.10;49.50
59162;DHT22;44942;48.936;8.260;2023-12-20T03:09:30;21.10;49.50
59162;DHT22;44942;48.936;8.260;2023-12-20T03:14:31;21.10;49.50
59162;DHT22;44942;48.936;8.260;2023-12-20T03:19:32;21.00;49.40
59162;DHT22;44942;48.936;8.260;2023-12-20T03:24:32;21.10;49.50
59162;DHT22;44942;48.936;8.260;2023-12-20T03:29:33;21.00;49.40
59162;DHT22;44942;48.936;8.260;2023-12-20T03:34:33;21.10;49.50
59162;DHT22;44942;48.936;8.260;2023-12-20T03:39:34;21.10;49.40
59162;DHT22;44942;48.936;8.260;2023-12-20T03:44:38;21.20;49.40
59162;DHT22;44942;48.936;8.260;2023-12-20T03:49:39;21.20;49.40
59162;DHT22;44942;48.936;8.260;2023-12-20T03:54:40;21.30;49.30
59162;DHT22;44942;48.936;8.260;2023-12-20T03:59:42;21.40;49.20
59162;DHT22;44942;48.936;8.260;2023-12-20T04:04:43;21.40;49.00
59162;DHT22;44942;48.936;8.260;2023-12-20T04:09:44;21.50;49.00
59162;DHT22;44942;48.936;8.260;2023-12-20T04:14:44;21.60;48.90
59162;DHT22;44942;48.936;8.260;2023-12-20T04:19:45;21.60;48.70
59162;DHT22;44942;48.936;8.260;2023-12-20T04:24:45;21.70;48.70
59162;DHT22;44942;48.936;8.260;2023-12-20T04:29:46;21.70;48.60
59162;DHT22;44942;48.936;8.260;2023-12-20T04:34:47;21.80;48.60
59162;DHT22;44942;48.936;8.260;2023-12-20T04:39:47;21.80;48.60
59162;DHT22;44942;48.936;8.260;2023-12-20T04:44:48;21.80;48.50
59162;DHT22;44942;48.936;8.260;2023-12-20T04:49:48;21.80;48.40
59162;DHT22;44942;48.936;8.260;2023-12-20T04:54:49;21.80;48.40
59162;DHT22;44942;48.936;8.260;2023-12-20T04:59:49;21.90;48.30
59162;DHT22;44942;48.936;8.260;2023-12-20T05:04:50;21.90;48.30
59162;DHT22;44942;48.936;8.260;2023-12-20T05:09:51;21.90;48.20
59162;DHT22;44942;48.936;8.260;2023-12-20T05:14:52;21.90;48.20
59162;DHT22;44942;48.936;8.260;2023-12-20T05:19:52;21.90;48.10
59162;DHT22;44942;48.936;8.260;2023-12-20T05:24:53;21.90;48.20
59162;DHT22;44942;48.936;8.260;2023-12-20T05:29:54;21.90;48.10
59162;DHT22;44942;48.936;8.260;2023-12-20T05:34:57;21.90;48.20
59162;DHT22;44942;48.936;8.260;2023-12-20T05:39:58;22.00;48.30
59162;DHT22;44942;48.936;8.260;2023-12-20T05:44:59;22.00;48.00
59162;DHT22;44942;48.936;8.260;2023-12-20T05:49:59;22.10;47.90
59162;DHT22;44942;48.936;8.260;2023-12-20T05:55:00;22.10;48.00
59162;DHT22;44942;48.936;8.260;2023-12-20T06:00:04;22.10;48.00
59162;DHT22;44942;48.936;8.260;2023-12-20T06:05:05;22.10;48.10
59162;DHT22;44942;48.936;8.260;2023-12-20T06:10:06;22.10;48.20
59162;DHT22;44942;48.936;8.260;2023-12-20T06:15:07;22.00;48.30
59162;DHT22;44942;48.936;8.260;2023-12-20T06:20:08;22.00;48.40
59162;DHT22;44942;48.936;8.260;2023-12-20T06:25:08;22.00;48.60
59162;DHT22;44942;48.936;8.260;2023-12-20T06:30:09;22.00;48.70
59162;DHT22;44942;48.936;8.260;2023-12-20T06:35:10;22.00;48.60
59162;DHT22;44942;48.936;8.260;2023-12-20T06:40:11;22.00;48.90
59162;DHT22;44942;48.936;8.260;2023-12-20T06:45:12;21.90;49.10
59162;DHT22;44942;48.936;8.260;2023-12-20T06:50:12;21.90;49.20
59162;DHT22;44942;48.936;8.260;2023-12-20T06:55:13;22.00;49.30
59162;DHT22;44942;48.936;8.260;2023-12-20T07:00:14;22.00;49.30
59162;DHT22;44942;48.936;8.260;2023-12-20T07:05:17;22.00;49.50
59162;DHT22;44942;48.936;8.260;2023-12-20T07:10:20;22.00;49.60
59162;DHT22;44942;48.936;8.260;2023-12-20T07:15:21;22.00;49.40
59162;DHT22;44942;48.936;8.260;2023-12-20T07:20:22;22.10;49.30
59162;DHT22;44942;48.936;8.260;2023-12-20T07:25:22;22.10;49.10
59162;DHT22;44942;48.936;8.260;2023-12-20T07:30:23;22.10;49.00
59162;DHT22;44942;48.936;8.260;2023-12-20T07:35:24;22.10;49.00
59162;DHT22;44942;48.936;8.260;2023-12-20T07:40:25;22.10;48.90
59162;DHT22;44942;48.936;8.260;2023-12-20T07:45:26;22.00;48.70
59162;DHT22;44942;48.936;8.260;2023-12-20T07:50:26;22.00;48.70
59162;DHT22;44942;48.936;8.260;2023-12-20T07:55:27;22.00;49.20
59162;DHT22;44942;48.936;8.260;2023-12-20T08:00:28;22.00;48.50
59162;DHT22;44942;48.936;8.260;2023-12-20T08:05:29;22.00;48.40
59162;DHT22;44942;48.936;8.260;2023-12-20T08:10:29;22.00;48.50
59162;DHT22;44942;48.936;8.260;2023-12-20T08:15:30;22.00;48.40
59162;DHT22;44942;48.936;8.260;2023-12-20T08:20:31;22.00;48.40
59162;DHT22;44942;48.936;8.260;2023-12-20T08:25:31;21.90;48.20
59162;DHT22;44942;48.936;8.260;2023-12-20T08:30:32;21.80;48.00
59162;DHT22;44942;48.936;8.260;2023-12-20T08:35:33;21.80;48.00
59162;DHT22;44942;48.936;8.260;2023-12-20T08:40:33;21.80;47.90
59162;DHT22;44942;48.936;8.260;2023-12-20T08:45:34;21.80;47.90
59162;DHT22;44942;48.936;8.260;2023-12-20T08:50:34;21.90;47.90
59162;DHT22;44942;48.936;8.260;2023-12-20T08:55:35;21.80;47.80
59162;DHT22;44942;48.936;8.260;2023-12-20T09:00:36;21.80;47.80
59162;DHT22;44942;48.936;8.260;2023-12-20T09:05:36;21.80;47.80
59162;DHT22;44942;48.936;8.260;2023-12-20T09:10:37;21.80;47.80
59162;DHT22;44942;48.936;8.260;2023-12-20T09:15:38;21.80;47.90
59162;DHT22;44942;48.936;8.260;2023-12-20T09:20:38;21.70;47.90
59162;DHT22;44942;48.936;8.260;2023-12-20T09:25:39;21.70;47.90
59162;DHT22;44942;48.936;8.260;2023-12-20T09:30:39;21.60;47.90
59162;DHT22;44942;48.936;8.260;2023-12-20T09:35:40;21.60;48.10
59162;DHT22;44942;48.936;8.260;2023-12-20T09:40:41;21.60;48.10
59162;DHT22;44942;48.936;8.260;2023-12-20T09:45:46;21.60;48.20
59162;DHT22;44942;48.936;8.260;2023-12-20T09:50:47;21.50;48.30
59162;DHT22;44942;48.936;8.260;2023-12-20T09:55:48;21.50;48.40
59162;DHT22;44942;48.936;8.260;2023-12-20T10:00:50;21.50;48.40
59162;DHT22;44942;48.936;8.260;2023-12-20T10:05:54;21.50;48.60
59162;DHT22;44942;48.936;8.260;2023-12-20T10:10:55;21.40;48.60
59162;DHT22;44942;48.936;8.260;2023-12-20T10:15:56;21.40;48.70
59162;DHT22;44942;48.936;8.260;2023-12-20T10:20:57;21.40;48.90
59162;DHT22;44942;48.936;8.260;2023-12-20T10:25:59;21.40;48.90
59162;DHT22;44942;48.936;8.260;2023-12-20T10:31:00;21.40;49.00
59162;DHT22;44942;48.936;8.260;2023-12-20T10:36:01;21.40;49.00
59162;DHT22;44942;48.936;8.260;2023-12-20T10:41:03;21.30;49.00
59162;DHT22;44942;48.936;8.260;2023-12-20T10:46:05;21.40;49.10
59162;DHT22;44942;48.936;8.260;2023-12-20T10:51:06;21.40;49.10
59162;DHT22;44942;48.936;8.260;2023-12-20T10:56:08;21.40;49.10
59162;DHT22;44942;48.936;8.260;2023-12-20T11:01:16;21.40;49.20
59162;DHT22;44942;48.936;8.260;2023-12-20T11:06:29;21.30;49.20
59162;DHT22;44942;48.936;8.260;2023-12-20T11:12:10;21.30;49.30
59162;DHT22;44942;48.936;8.260;2023-12-20T11:17:12;21.30;49.30
59162;DHT22;44942;48.936;8.260;2023-12-20T11:22:14;21.30;49.30
59162;DHT22;44942;48.936;8.260;2023-12-20T11:27:15;21.30;49.20
59162;DHT22;44942;48.936;8.260;2023-12-20T11:37:38;21.40;49.30
59162;DHT22;44942;48.936;8.260;2023-12-20T11:42:49;21.40;49.30
59162;DHT22;44942;48.936;8.260;2023-12-20T11:47:51;21.40;49.30
59162;DHT22;44942;48.936;8.260;2023-12-20T11:52:52;21.50;49.30
59162;DHT22;44942;48.936;8.260;2023-12-20T11:57:54;21.50;49.30
59162;DHT22;44942;48.936;8.260;2023-12-20T12:02:56;21.50;49.30
59162;DHT22;44942;48.936;8.260;2023-12-20T12:07:57;21.40;49.10
59162;DHT22;44942;48.936;8.260;2023-12-20T12:12:57;21.40;49.10
59162;DHT22;44942;48.936;8.260;2023-12-20T12:17:58;21.40;49.10
59162;DHT22;44942;48.936;8.260;2023-12-20T12:23:04;21.40;49.10
59162;DHT22;44942;48.936;8.260;2023-12-20T12:28:05;21.40;49.10
59162;DHT22;44942;48.936;8.260;2023-12-20T12:33:06;21.30;49.00
59162;DHT22;44942;48.936;8.260;2023-12-20T12:38:07;21.30;49.10
59162;DHT22;44942;48.936;8.260;2023-12-20T12:43:09;21.30;49.10
59162;DHT22;44942;48.936;8.260;2023-12-20T12:48:09;21.30;49.10
59162;DHT22;44942;48.936;8.260;2023-12-20T12:53:10;21.30;49.00
59162;DHT22;44942;48.936;8.260;2023-12-20T12:58:11;21.30;49.00
59162;DHT22;44942;48.936;8.260;2023-12-20T13:03:12;21.30;49.10
59162;DHT22;44942;48.936;8.260;2023-12-20T13:08:13;21.30;49.10
59162;DHT22;44942;48.936;8.260;2023-12-20T13:13:14;21.30;49.10
59162;DHT22;44942;48.936;8.260;2023-12-20T13:18:14;21.30;49.10
59162;DHT22;44942;48.936;8.260;2023-12-20T13:23:15;21.30;49.00
59162;DHT22;44942;48.936;8.260;2023-12-20T13:28:16;21.20;49.00
59162;DHT22;44942;48.936;8.260;2023-12-20T13:33:16;21.30;49.10
59162;DHT22;44942;48.936;8.260;2023-12-20T13:38:17;21.30;49.00
59162;DHT22;44942;48.936;8.260;2023-12-20T13:43:18;21.40;49.00
59162;DHT22;44942;48.936;8.260;2023-12-20T13:48:21;21.40;48.90
59162;DHT22;44942;48.936;8.260;2023-12-20T13:53:21;21.40;48.80
59162;DHT22;44942;48.936;8.260;2023-12-20T13:58:22;21.50;48.90
59162;DHT22;44942;48.936;8.260;2023-12-20T14:03:23;21.40;48.90
59162;DHT22;44942;48.936;8.260;2023-12-20T14:08:23;21.40;48.80
59162;DHT22;44942;48.936;8.260;2023-12-20T14:13:24;21.40;48.80
59162;DHT22;44942;48.936;8.260;2023-12-20T14:18:24;21.40;48.80
59162;DHT22;44942;48.936;8.260;2023-12-20T14:23:25;21.40;48.70
59162;DHT22;44942;48.936;8.260;2023-12-20T14:28:26;21.40;48.60
59162;DHT22;44942;48.936;8.260;2023-12-20T14:33:26;21.40;48.70
59162;DHT22;44942;48.936;8.260;2023-12-20T14:38:27;21.40;48.60
59162;DHT22;44942;48.936;8.260;2023-12-20T14:43:27;21.30;48.50
59162;DHT22;44942;48.936;8.260;2023-12-20T14:48:28;21.30;48.60
59162;DHT22;44942;48.936;8.260;2023-12-20T14:53:29;21.30;48.50
59162;DHT22;44942;48.936;8.260;2023-12-20T14:58:29;21.30;48.30
59162;DHT22;44942;48.936;8.260;2023-12-20T15:03:30;21.30;48.30
59162;DHT22;44942;48.936;8.260;2023-12-20T15:08:31;21.20;48.20
59162;DHT22;44942;48.936;8.260;2023-12-20T15:13:31;21.20;48.20
59162;DHT22;44942;48.936;8.260;2023-12-20T15:18:33;21.20;48.20
59162;DHT22;44942;48.936;8.260;2023-12-20T15:23:33;21.20;48.20
59162;DHT22;44942;48.936;8.260;2023-12-20T15:28:37;21.20;48.20
59162;DHT22;44942;48.936;8.260;2023-12-20T15:33:37;21.10;48.20
59162;DHT22;44942;48.936;8.260;2023-12-20T15:38:38;21.10;48.30
59162;DHT22;44942;48.936;8.260;2023-12-20T15:43:39;21.00;48.30
59162;DHT22;44942;48.936;8.260;2023-12-20T15:48:39;21.00;49.10
59162;DHT22;44942;48.936;8.260;2023-12-20T15:53:40;21.00;48.40
59162;DHT22;44942;48.936;8.260;2023-12-20T15:58:41;21.00;48.40
59162;DHT22;44942;48.936;8.260;2023-12-20T16:03:41;21.00;48.40
59162;DHT22;44942;48.936;8.260;2023-12-20T16:08:43;21.00;49.00
59162;DHT22;44942;48.936;8.260;2023-12-20T16:13:44;21.00;48.30
59162;DHT22;44942;48.936;8.260;2023-12-20T16:18:45;21.00;48.30
59162;DHT22;44942;48.936;8.260;2023-12-20T16:23:45;21.00;48.40
59162;DHT22;44942;48.936;8.260;2023-12-20T16:28:46;21.00;48.40
59162;DHT22;44942;48.936;8.260;2023-12-20T16:33:46;21.00;48.40
59162;DHT22;44942;48.936;8.260;2023-12-20T16:38:47;21.00;48.40
59162;DHT22;44942;48.936;8.260;2023-12-20T16:43:48;21.00;48.40
59162;DHT22;44942;48.936;8.260;2023-12-20T16:48:49;21.00;48.50
59162;DHT22;44942;48.936;8.260;2023-12-20T16:53:49;21.00;48.40
59162;DHT22;44942;48.936;8.260;2023-12-20T16:58:50;21.00;48.40
59162;DHT22;44942;48.936;8.260;2023-12-20T17:03:53;21.00;48.40
59162;DHT22;44942;48.936;8.260;2023-12-20T17:08:53;21.10;48.40
59162;DHT22;44942;48.936;8.260;2023-12-20T17:13:54;21.10;48.40
59162;DHT22;44942;48.936;8.260;2023-12-20T17:18:54;21.10;48.40
59162;DHT22;44942;48.936;8.260;2023-12-20T17:23:55;21.10;48.30
59162;DHT22;44942;48.936;8.260;2023-12-20T17:28:56;21.10;48.30
59162;DHT22;44942;48.936;8.260;2023-12-20T17:33:56;21.10;48.20
59162;DHT22;44942;48.936;8.260;2023-12-20T17:38:57;21.10;48.30
59162;DHT22;44942;48.936;8.260;2023-12-20T17:43:58;21.20;48.30
59162;DHT22;44942;48.936;8.260;2023-12-20T17:48:58;21.10;48.20
59162;DHT22;44942;48.936;8.260;2023-12-20T17:54:00;21.10;48.20
59162;DHT22;44942;48.936;8.260;2023-12-20T17:59:03;21.10;48.20
59162;DHT22;44942;48.936;8.260;2023-12-20T18:04:04;21.10;48.20
59162;DHT22;44942;48.936;8.260;2023-12-20T18:09:04;21.10;48.30
59162;DHT22;44942;48.936;8.260;2023-12-20T18:14:05;21.30;48.30
59162;DHT22;44942;48.936;8.260;2023-12-20T18:19:06;21.30;48.40
59162;DHT22;44942;48.936;8.260;2023-12-20T18:24:06;21.30;48.50
59162;DHT22;44942;48.936;8.260;2023-12-20T18:29:07;21.30;48.50
59162;DHT22;44942;48.936;8.260;2023-12-20T18:34:08;21.30;48.60
59162;DHT22;44942;48.936;8.260;2023-12-20T18:39:08;21.40;48.70
59162;DHT22;44942;48.936;8.260;2023-12-20T18:44:09;21.40;48.70
59162;DHT22;44942;48.936;8.260;2023-12-20T18:49:10;21.40;48.80
59162;DHT22;44942;48.936;8.260;2023-12-20T18:54:11;21.40;48.80
59162;DHT22;44942;48.936;8.260;2023-12-20T18:59:11;21.40;48.80
59162;DHT22;44942;48.936;8.260;2023-12-20T19:04:13;21.40;48.80
59162;DHT22;44942;48.936;8.260;2023-12-20T19:09:14;21.40;49.00
59162;DHT22;44942;48.936;8.260;2023-12-20T19:14:16;21.40;48.70
59162;DHT22;44942;48.936;8.260;2023-12-20T19:19:17;21.40;48.70
59162;DHT22;44942;48.936;8.260;2023-12-20T19:24:17;21.50;48.90
59162;DHT22;44942;48.936;8.260;2023-12-20T19:29:18;21.50;48.90
59162;DHT22;44942;48.936;8.260;2023-12-20T19:34:19;21.50;48.90
59162;DHT22;44942;48.936;8.260;2023-12-20T19:39:19;21.50;48.80
59162;DHT22;44942;48.936;8.260;2023-12-20T19:44:20;21.50;48.70
59162;DHT22;44942;48.936;8.260;2023-12-20T19:49:21;21.50;48.80
59162;DHT22;44942;48.936;8.260;2023-12-20T19:54:22;21.50;48.70
59162;DHT22;44942;48.936;8.260;2023-12-20T19:59:23;21.50;49.30
59162;DHT22;44942;48.936;8.260;2023-12-20T20:04:23;21.50;48.70
59162;DHT22;44942;48.936;8.260;2023-12-20T20:09:24;21.50;48.60
59162;DHT22;44942;48.936;8.260;2023-12-20T20:14:25;21.50;48.70
59162;DHT22;44942;48.936;8.260;2023-12-20T20:19:28;21.50;48.60
59162;DHT22;44942;48.936;8.260;2023-12-20T20:24:28;21.20;48.70
59162;DHT22;44942;48.936;8.260;2023-12-20T20:29:29;21.20;48.60
59162;DHT22;44942;48.936;8.260;2023-12-20T20:34:30;21.30;48.50
59162;DHT22;44942;48.936;8.260;2023-12-20T20:39:30;21.30;48.50
59162;DHT22;44942;48.936;8.260;2023-12-20T20:44:31;21.40;48.60
59162;DHT22;44942;48.936;8.260;2023-12-20T20:49:32;21.40;48.60
59162;DHT22;44942;48.936;8.260;2023-12-20T20:54:32;21.40;48.60
59162;DHT22;44942;48.936;8.260;2023-12-20T20:59:33;21.40;48.60
59162;DHT22;44942;48.936;8.260;2023-12-20T21:04:33;21.40;48.60
59162;DHT22;44942;48.936;8.260;2023-12-20T21:09:34;21.40;48.60
59162;DHT22;44942;48.936;8.260;2023-12-20T21:14:34;21.40;48.60
59162;DHT22;44942;48.936;8.260;2023-12-20T21:19:35;21.40;48.70
59162;DHT22;44942;48.936;8.260;2023-12-20T21:24:36;21.10;48.80
59162;DHT22;44942;48.936;8.260;2023-12-20T21:29:36;21.10;48.70
59162;DHT22;44942;48.936;8.260;2023-12-20T21:34:37;21.20;48.60
59162;DHT22;44942;48.936;8.260;2023-12-20T21:39:38;21.30;48.60
59162;DHT22;44942;48.936;8.260;2023-12-20T21:44:39;21.30;48.50
59162;DHT22;44942;48.936;8.260;2023-12-20T21:49:40;21.30;48.50
59162;DHT22;44942;48.936;8.260;2023-12-20T21:54:40;21.40;48.60
59162;DHT22;44942;48.936;8.260;2023-12-20T21:59:41;21.40;48.70
59162;DHT22;44942;48.936;8.260;2023-12-20T22:04:41;21.40;48.80
59162;DHT22;44942;48.936;8.260;2023-12-20T22:09:42;21.40;48.90
59162;DHT22;44942;48.936;8.260;2023-12-20T22:14:43;21.40;48.90
59162;DHT22;44942;48.936;8.260;2023-12-20T22:19:43;21.30;48.90
59162;DHT22;44942;48.936;8.260;2023-12-20T22:24:44;21.40;49.00
59162;DHT22;44942;48.936;8.260;2023-12-20T22:29:44;21.40;49.00
59162;DHT22;44942;48.936;8.260;2023-12-20T22:34:46;21.40;49.10
59162;DHT22;44942;48.936;8.260;2023-12-20T22:39:47;21.30;49.00
59162;DHT22;44942;48.936;8.260;2023-12-20T22:44:48;21.30;49.10
59162;DHT22;44942;48.936;8.260;2023-12-20T22:49:54;21.40;49.10
59162;DHT22;44942;48.936;8.260;2023-12-20T22:54:55;21.30;49.10
59162;DHT22;44942;48.936;8.260;2023-12-20T22:59:56;21.30;49.00
59162;DHT22;44942;48.936;8.260;2023-12-20T23:04:56;21.30;49.00
59162;DHT22;44942;48.936;8.260;2023-12-20T23:09:57;21.30;49.00
59162;DHT22;44942;48.936;8.260;2023-12-20T23:14:57;21.30;49.00
59162;DHT22;44942;48.936;8.260;2023-12-20T23:19:58;21.30;49.00
59162;DHT22;44942;48.936;8.260;2023-12-20T23:25:00;21.30;48.90
59162;DHT22;44942;48.936;8.260;2023-12-20T23:30:01;21.30;48.90
59162;DHT22;44942;48.936;8.260;2023-12-20T23:35:01;21.30;49.00
59162;DHT22;44942;48.936;8.260;2023-12-20T23:40:02;21.30;48.90
59162;DHT22;44942;48.936;8.260;2023-12-20T23:45:03;21.30;49.00
59162;DHT22;44942;48.936;8.260;2023-12-20T23:50:05;21.20;48.90
59162;DHT22;44942;48.936;8.260;2023-12-20T23:55:06;21.20;48.90
